sensor_id;sensor_type;location;lat;lon;timestamp;pressure;altitude;pressure_sealevel;temperature;humidity
71642;BME280;60657;50.122;14.468;2023-08-06T00:03:03;97395.2512142441;;;16.532387273975736;86.77294575417716
71642;BME280;60657;50.122;14.468;2023-08-06T00:06:12;97385.08260491885;;;16.54573891813535;86.72335393301289
71642;BME280;60657;50.122;14.468;2023-08-06T00:09:19;97381.92516853668;;;16.51903562981613;86.87975890745403
71642;BME280;60657;50.122;14.468;2023-08-06T00:12:26;97381.28012816074;;;16.454947737850006;87.02853437094683
71642;BME280;60657;50.122;14.468;2023-08-06T00:15:34;97388.58809886589;;;16.486991683833068;87.05714503700312
71642;BME280;60657;50.122;14.468;2023-08-06T00:18:42;97390.34045660793;;;16.4789806973373;86.98084992751964
71642;BME280;60657;50.122;14.468;2023-08-06T00:21:50;97380.40404925687;;;16.47631036850538;87.0018310826276
71642;BME280;60657;50.122;14.468;2023-08-06T00:24:57;97371.98914199689;;;16.465629053177693;87.02853437094683
71642;BME280;60657;50.122;14.468;2023-08-06T00:28:04;97358.78075951482;;;16.428244449530787;87.00755321583887
71642;BME280;60657;50.122;14.468;2023-08-06T00:31:12;97341.95147254229;;;16.428244449530787;87.03425650415808
71642;BME280;60657;50.122;14.468;2023-08-06T00:34:19;97341.95147254229;;;16.412222476539256;87.04760814831769
71642;BME280;60657;50.122;14.468;2023-08-06T00:37:27;97341.8342840705;;;16.446936751354237;86.94651712825208
71642;BME280;60657;50.122;14.468;2023-08-06T00:40:34;97348.67165721169;;;16.43625543602655;87.09338521400778
71642;BME280;60657;50.122;14.468;2023-08-06T00:43:42;97347.73671469995;;;16.44426642252232;86.93125810635539
71642;BME280;60657;50.122;14.468;2023-08-06T00:46:50;97340.1981513118;;;16.484321355001143;86.86640726329442
71642;BME280;60657;50.122;14.468;2023-08-06T00:49:57;97334.47179755972;;;16.43625543602655;86.81490806439307
71642;BME280;60657;50.122;14.468;2023-08-06T00:53:05;97327.05104522614;;;16.36682688639658;87.03044174868391
71642;BME280;60657;50.122;14.468;2023-08-06T00:56:13;97325.53203420152;;;16.34813458457313;87.02662699320973
71642;BME280;60657;50.122;14.468;2023-08-06T00:59:20;97332.13465407927;;;16.398870832379643;86.82825970855268
71642;BME280;60657;50.122;14.468;2023-08-06T01:02:28;97327.81039519573;;;16.37483787289235;86.96749828336003
71642;BME280;60657;50.122;14.468;2023-08-06T01:05:36;97327.81039519573;;;16.414892805371174;86.74624246585793
71642;BME280;60657;50.122;14.468;2023-08-06T01:08:46;97319.2775126012;;;16.37483787289235;86.85877775234607
71642;BME280;60657;50.122;14.468;2023-08-06T01:12:05;97317.40461175563;;;16.428244449530787;86.79964904249637
71642;BME280;60657;50.122;14.468;2023-08-06T01:15:25;97320.79485486604;;;16.396200503547725;86.6928358892195
71642;BME280;60657;50.122;14.468;2023-08-06T01:18:39;97307.1731372671;;;16.513694972152287;86.51926451514458
71642;BME280;60657;50.122;14.468;2023-08-06T01:21:47;97301.38910935697;;;16.49500267032883;86.37430380712597
71642;BME280;60657;50.122;14.468;2023-08-06T01:24:54;97298.11831148731;;;16.481651026169224;86.27893492027161
71642;BME280;60657;50.122;14.468;2023-08-06T01:28:04;97293.78965251343;;;16.5030136568246;86.19882505531396
71642;BME280;60657;50.122;14.468;2023-08-06T01:31:21;97285.43265793605;;;16.513694972152287;86.29037918669414
71642;BME280;60657;50.122;14.468;2023-08-06T01:34:33;97295.66525001827;;;16.47631036850538;86.35332265201801
71642;BME280;60657;50.122;14.468;2023-08-06T01:37:42;97309.80592480056;;;16.492332341496912;86.3247119859617
71642;BME280;60657;50.122;14.468;2023-08-06T01:40:51;97302.08667832491;;;16.500343327992674;86.19501029983978
71642;BME280;60657;50.122;14.468;2023-08-06T01:43:58;97308.80862599635;;;16.532387273975736;86.20836194399939
71642;BME280;60657;50.122;14.468;2023-08-06T01:47:06;97288.944033842;;;16.438925764858475;86.35713740749217
71642;BME280;60657;50.122;14.468;2023-08-06T01:50:13;97290.39856726112;;;16.46829938200961;86.30563820859084
71642;BME280;60657;50.122;14.468;2023-08-06T01:53:21;97290.75922207172;;;16.414892805371174;86.39719233997101
71642;BME280;60657;50.122;14.468;2023-08-06T01:56:28;97303.38289722787;;;16.3935301747158;86.55359731441214
71642;BME280;60657;50.122;14.468;2023-08-06T01:59:35;97286.6709622226;;;16.43358510719463;86.3990997177081
71642;BME280;60657;50.122;14.468;2023-08-06T02:02:43;97286.6709622226;;;16.457618066681924;86.35904478522927
71642;BME280;60657;50.122;14.468;2023-08-06T02:05:50;97289.3029908578;;;16.364156557564662;86.3990997177081
71642;BME280;60657;50.122;14.468;2023-08-06T02:08:58;97284.45641744618;;;16.3935301747158;86.32089723048753
71642;BME280;60657;50.122;14.468;2023-08-06T02:12:06;97286.26968051285;;;16.353475242236975;86.4429694056611
71642;BME280;60657;50.122;14.468;2023-08-06T02:15:13;97282.12201831913;;;16.364156557564662;86.38002594033722
71642;BME280;60657;50.122;14.468;2023-08-06T02:18:21;97297.59913989605;;;16.4175631342031;86.32280460822462
71642;BME280;60657;50.122;14.468;2023-08-06T02:21:29;97297.24065348138;;;16.497672999160756;86.17593652246892
71642;BME280;60657;50.122;14.468;2023-08-06T02:24:36;97278.65019779731;;;16.55374990463111;85.9871061264973
71642;BME280;60657;50.122;14.468;2023-08-06T02:27:43;97284.61508812636;;;16.497672999160756;85.87647821774624
71642;BME280;60657;50.122;14.468;2023-08-06T02:30:51;97275.6822938228;;;16.37483787289235;86.0138094148165
71642;BME280;60657;50.122;14.468;2023-08-06T02:33:59;97280.01031537817;;;16.364156557564662;86.12252994583048
71642;BME280;60657;50.122;14.468;2023-08-06T02:37:07;97272.83112504423;;;16.268024719615475;86.28656443121996
71642;BME280;60657;50.122;14.468;2023-08-06T02:40:14;97277.85577560027;;;16.284046692607006;86.33234149691005
71642;BME280;60657;50.122;14.468;2023-08-06T02:43:22;97276.16106428947;;;16.302738994430456;86.28274967574579
71642;BME280;60657;50.122;14.468;2023-08-06T02:46:29;97275.22430286839;;;16.318760967421987;86.29037918669414
71642;BME280;60657;50.122;14.468;2023-08-06T02:49:37;97269.56078117232;;;16.26268406195163;86.40482185091936
71642;BME280;60657;50.122;14.468;2023-08-06T02:52:44;97268.16287152923;;;16.201266498817425;86.3838406958114
71642;BME280;60657;50.122;14.468;2023-08-06T02:55:52;97260.50818392997;;;16.190585183489738;86.56504158083467
71642;BME280;60657;50.122;14.468;2023-08-06T02:58:59;97261.2661762971;;;16.24933241779202;86.5898374914168
71642;BME280;60657;50.122;14.468;2023-08-06T03:02:07;97256.24186761536;;;16.18791485465782;86.49637598229954
71642;BME280;60657;50.122;14.468;2023-08-06T03:05:14;97256.30152476812;;;16.2226291294728;86.65850308995194
71642;BME280;60657;50.122;14.468;2023-08-06T03:08:22;97250.81663679557;;;16.166552224002444;86.60891126878766
71642;BME280;60657;50.122;14.468;2023-08-06T03:11:29;97253.96805321936;;;16.260013733119706;86.54215304798963
71642;BME280;60657;50.122;14.468;2023-08-06T03:14:37;97256.53927580285;;;16.235980773632413;86.35523002975509
71642;BME280;60657;50.122;14.468;2023-08-06T03:17:44;97245.79320726541;;;16.214618142977038;86.34760051880674
71642;BME280;60657;50.122;14.468;2023-08-06T03:20:52;97237.44067493347;;;16.139848935683226;86.62607766842146
71642;BME280;60657;50.122;14.468;2023-08-06T03:24:00;97226.45704819364;;;16.182574196993976;86.62226291294728
71642;BME280;60657;50.122;14.468;2023-08-06T03:27:07;97223.94527517448;;;16.185244525825894;86.67566948958572
71642;BME280;60657;50.122;14.468;2023-08-06T03:30:15;97228.72884251618;;;16.257343404287788;86.55741206988633
71642;BME280;60657;50.122;14.468;2023-08-06T03:33:23;97227.21441658525;;;16.214618142977038;86.63179980163271
71642;BME280;60657;50.122;14.468;2023-08-06T03:36:30;97221.1928196037;;;16.2466620889601;86.51926451514458
71642;BME280;60657;50.122;14.468;2023-08-06T03:39:37;97210.56926757625;;;16.21995880064088;86.46585793850615
71642;BME280;60657;50.122;14.468;2023-08-06T03:42:45;97211.38644272747;;;16.20393682764935;86.35904478522927
71642;BME280;60657;50.122;14.468;2023-08-06T03:45:53;97207.24037654581;;;16.217288471808956;86.38956282902267
71642;BME280;60657;50.122;14.468;2023-08-06T03:49:00;97212.3839465942;;;16.16388189517052;86.64324406805524
71642;BME280;60657;50.122;14.468;2023-08-06T03:52:08;97212.26381753535;;;16.123826962691695;86.66613260090028
71642;BME280;60657;50.122;14.468;2023-08-06T03:55:15;97207.93679388575;;;16.147859922178988;86.49637598229954
71642;BME280;60657;50.122;14.468;2023-08-06T03:58:23;97206.3025335035;;;16.131837949187457;86.51354238193332
71642;BME280;60657;50.122;14.468;2023-08-06T04:01:30;97203.73018136257;;;16.1371786068513;86.43343251697566
71642;BME280;60657;50.122;14.468;2023-08-06T04:04:38;97201.03599447983;;;16.18791485465782;86.37048905165179
71642;BME280;60657;50.122;14.468;2023-08-06T04:07:45;97196.70667914696;;;16.227969787136644;86.133974212253
71642;BME280;60657;50.122;14.468;2023-08-06T04:10:53;97185.90246049485;;;16.26268406195163;85.9718471046006
71642;BME280;60657;50.122;14.468;2023-08-06T04:14:01;97185.2691524226;;;16.174563210498206;86.04814221408408
71642;BME280;60657;50.122;14.468;2023-08-06T04:17:09;97182.63482494224;;;16.26268406195163;86.10154879072252
71642;BME280;60657;50.122;14.468;2023-08-06T04:20:17;97179.55064811051;;;16.177233539330132;86.18356603341726
71642;BME280;60657;50.122;14.468;2023-08-06T04:23:25;97171.32070657023;;;16.171892881666288;86.18165865568017
71642;BME280;60657;50.122;14.468;2023-08-06T04:26:32;97163.21301661705;;;16.11848630502785;86.41626611734188
71642;BME280;60657;50.122;14.468;2023-08-06T04:29:41;97174.46598274219;;;16.174563210498206;86.01762417029069
71642;BME280;60657;50.122;14.468;2023-08-06T04:32:49;97171.76998301146;;;16.198596169985507;86.19119554436561
71642;BME280;60657;50.122;14.468;2023-08-06T04:35:57;97173.46512948361;;;16.225299458304725;85.81353475242237
71642;BME280;60657;50.122;14.468;2023-08-06T04:39:05;97161.6602680152;;;16.23064011596857;85.88410772869459
71642;BME280;60657;50.122;14.468;2023-08-06T04:42:12;97164.98904859167;;;16.257343404287788;86.07293812466621
71642;BME280;60657;50.122;14.468;2023-08-06T04:45:20;97158.45515976715;;;16.198596169985507;86.13015945677883
71642;BME280;60657;50.122;14.468;2023-08-06T04:48:27;97149.97887768436;;;16.20660715648127;86.18165865568017
71642;BME280;60657;50.122;14.468;2023-08-06T04:51:35;97149.85456800368;;;16.260013733119706;86.24078736552987
71642;BME280;60657;50.122;14.468;2023-08-06T04:54:43;97149.03795094012;;;16.20393682764935;86.32852674143588
71642;BME280;60657;50.122;14.468;2023-08-06T04:57:51;97138.86454244371;;;16.318760967421987;86.21408407721066
71642;BME280;60657;50.122;14.468;2023-08-06T05:00:58;97144.70547871693;;;16.297398336766612;86.27512016479744
71642;BME280;60657;50.122;14.468;2023-08-06T05:04:06;97143.7636944196;;;16.302738994430456;86.34760051880674
71642;BME280;60657;50.122;14.468;2023-08-06T05:07:13;97138.55022926952;;;16.35881589990082;86.40291447318226
71642;BME280;60657;50.122;14.468;2023-08-06T05:10:21;97141.06271104657;;;16.372167544060424;86.34569314106966
71642;BME280;60657;50.122;14.468;2023-08-06T05:13:29;97141.06271104657;;;16.364156557564662;86.48111696040284
71642;BME280;60657;50.122;14.468;2023-08-06T05:16:36;97134.65664793854;;;16.372167544060424;86.39719233997101
71642;BME280;60657;50.122;14.468;2023-08-06T05:19:44;97138.86454244371;;;16.26268406195163;86.61272602426185
71642;BME280;60657;50.122;14.468;2023-08-06T05:22:51;97136.16385569578;;;16.37483787289235;86.39147020675975
71642;BME280;60657;50.122;14.468;2023-08-06T05:25:59;97145.33400847432;;;16.369497215228506;86.36667429617762
71642;BME280;60657;50.122;14.468;2023-08-06T05:29:06;97144.89219582906;;;16.486991683833068;86.15877012283512
71642;BME280;60657;50.122;14.468;2023-08-06T05:32:14;97149.1645866266;;;16.46829938200961;86.03669794766155
71642;BME280;60657;50.122;14.468;2023-08-06T05:35:22;97136.4737127463;;;16.492332341496912;85.89173723964294
71642;BME280;60657;50.122;14.468;2023-08-06T05:38:30;97135.27373411758;;;16.567101548790724;85.85168230716411
71642;BME280;60657;50.122;14.468;2023-08-06T05:41:37;97139.41962328627;;;16.5884641794461;85.48737315938048
71642;BME280;60657;50.122;14.468;2023-08-06T05:44:45;97133.2544462216;;;16.64721141374838;85.54650186923018
71642;BME280;60657;50.122;14.468;2023-08-06T05:47:52;97131.42747932124;;;16.711299305714505;85.86884870679789
71642;BME280;60657;50.122;14.468;2023-08-06T05:51:00;97121.17703755067;;;16.746013580529485;85.23750667582208
71642;BME280;60657;50.122;14.468;2023-08-06T05:54:08;97125.25766537251;;;16.76737621118486;84.59472037842374
71642;BME280;60657;50.122;14.468;2023-08-06T05:57:15;97134.03815148973;;;16.844815747310598;84.76829175249867
71642;BME280;60657;50.122;14.468;2023-08-06T06:00:23;97130.57572741628;;;16.874189364461735;84.48599984740979
71642;BME280;60657;50.122;14.468;2023-08-06T06:03:31;97137.10464056056;;;16.92225528343633;84.19417105363546
71642;BME280;60657;50.122;14.468;2023-08-06T06:06:38;97125.14811109623;;;16.959639887083235;83.91378652628366
71642;BME280;60657;50.122;14.468;2023-08-06T06:09:46;97130.1109307202;;;16.983672846570535;84.41733424887465
71642;BME280;60657;50.122;14.468;2023-08-06T06:12:53;97120.11863651212;;;16.943617914091703;83.82986190585183
71642;BME280;60657;50.122;14.468;2023-08-06T06:16:01;97119.91767722061;;;16.994354161898222;83.49797817959869
71642;BME280;60657;50.122;14.468;2023-08-06T06:19:09;97129.7090989284;;;17.061112382696273;83.28435187304494
71642;BME280;60657;50.122;14.468;2023-08-06T06:22:16;97128.82585742931;;;17.085145342183566;83.27672236209659
71642;BME280;60657;50.122;14.468;2023-08-06T06:25:24;97125.97269806448;;;17.138551918822003;83.52277409018082
71642;BME280;60657;50.122;14.468;2023-08-06T06:28:32;97126.85636947681;;;17.101167315175097;83.02304112306402
71642;BME280;60657;50.122;14.468;2023-08-06T06:31:39;97122.97955884402;;;17.026398107881285;82.86282139314869
71642;BME280;60657;50.122;14.468;2023-08-06T06:34:47;97115.0949720281;;;17.167925535973147;83.33775844968338
71642;BME280;60657;50.122;14.468;2023-08-06T06:37:55;97129.84820648542;;;17.25070572976272;83.49225604638742
71642;BME280;60657;50.122;14.468;2023-08-06T06:41:02;97113.73211640035;;;17.282749675745784;83.14702067597467
71642;BME280;60657;50.122;14.468;2023-08-06T06:44:10;97111.75600183712;;;17.325474937056534;83.22140840772107
71642;BME280;60657;50.122;14.468;2023-08-06T06:47:18;97118.35064059807;;;17.32013427939269;82.55001144426642
71642;BME280;60657;50.122;14.468;2023-08-06T06:50:25;97121.8895237907;;;17.330815594720377;83.18135347524223
71642;BME280;60657;50.122;14.468;2023-08-06T06:53:33;97117.79464868645;;;17.47234302281224;82.9658197909514
71642;BME280;60657;50.122;14.468;2023-08-06T06:56:41;97119.2158951747;;;17.520408941786833;82.56717784390021
71642;BME280;60657;50.122;14.468;2023-08-06T06:59:49;97120.63624248508;;;17.581826504921032;82.20668345159075
71642;BME280;60657;50.122;14.468;2023-08-06T07:02:56;97113.82963289198;;;17.595178149080645;82.38406958113985
71642;BME280;60657;50.122;14.468;2023-08-06T07:06:05;97115.17709899599;;;17.696650644693676;82.55573357747768
71642;BME280;60657;50.122;14.468;2023-08-06T07:09:19;97112.01586482573;;;17.80346379797055;82.39742122529945
71642;BME280;60657;50.122;14.468;2023-08-06T07:12:27;97115.20537166532;;;17.83817807278553;81.73746852826734
71642;BME280;60657;50.122;14.468;2023-08-06T07:15:35;97113.88354590721;;;17.969024185549706;81.92629892423895
71642;BME280;60657;50.122;14.468;2023-08-06T07:18:43;97118.7754229387;;;17.993057145037;81.42084382391089
71642;BME280;60657;50.122;14.468;2023-08-06T07:21:51;97107.07020717637;;;17.95834287022202;81.70504310673685
71642;BME280;60657;50.122;14.468;2023-08-06T07:24:58;97109.58884795889;;;17.987716487373156;81.76989394979782
71642;BME280;60657;50.122;14.468;2023-08-06T07:28:06;97109.66167935212;;;17.944991226062406;81.59060044251163
71642;BME280;60657;50.122;14.468;2023-08-06T07:31:14;97113.96772823528;;;18.131914244296944;81.90150301365682
71642;BME280;60657;50.122;14.468;2023-08-06T07:34:22;97107.52208922447;;;18.244068055237662;81.9339284351873
71642;BME280;60657;50.122;14.468;2023-08-06T07:37:30;97105.89193021081;;;18.23071641107805;81.74509803921569
71642;BME280;60657;50.122;14.468;2023-08-06T07:40:38;97100.03774334995;;;18.115892271305412;81.17860685130083
71642;BME280;60657;50.122;14.468;2023-08-06T07:43:45;97103.96479307958;;;18.089188982986194;81.28923476005188
71642;BME280;60657;50.122;14.468;2023-08-06T07:46:53;97098.92658342348;;;18.11055161364157;81.86717021438926
71642;BME280;60657;50.122;14.468;2023-08-06T07:50:01;97099.66780740044;;;18.089188982986194;81.42847333485923
71642;BME280;60657;50.122;14.468;2023-08-06T07:53:09;97094.7773398213;;;18.035782406347757;81.6840619516289
71642;BME280;60657;50.122;14.468;2023-08-06T07:56:17;97089.59109842492;;;18.123903257801175;81.3903257801175
71642;BME280;60657;50.122;14.468;2023-08-06T07:59:25;97088.40428788424;;;18.011749446860456;81.84046692607004
71642;BME280;60657;50.122;14.468;2023-08-06T08:02:33;97091.22111953546;;;18.1265735866331;81.82902265964752
71642;BME280;60657;50.122;14.468;2023-08-06T08:05:40;97088.85019038529;;;18.097199969481956;81.93965056839856
71642;BME280;60657;50.122;14.468;2023-08-06T08:08:48;97082.10073455163;;;18.278782330052643;81.81185626001373
71642;BME280;60657;50.122;14.468;2023-08-06T08:11:56;97076.6219297544;;;18.177309834439612;81.29304951552605
71642;BME280;60657;50.122;14.468;2023-08-06T08:15:04;97073.28764160763;;;18.201342793926912;81.45517662317846
71642;BME280;60657;50.122;14.468;2023-08-06T08:18:12;97071.43283607413;;;18.20401312275883;81.57152666514077
71642;BME280;60657;50.122;14.468;2023-08-06T08:21:20;97066.7690947369;;;18.14259555962463;81.35408560311284
71642;BME280;60657;50.122;14.468;2023-08-06T08:24:28;97073.21266087965;;;18.171969176775768;81.35027084763867
71642;BME280;60657;50.122;14.468;2023-08-06T08:27:36;97066.39370370253;;;18.158617532616162;80.96688792248416
71642;BME280;60657;50.122;14.468;2023-08-06T08:30:44;97070.02834059538;;;18.15327687495232;81.64972915236133
71642;BME280;60657;50.122;14.468;2023-08-06T08:33:52;97061.86687955883;;;18.318837262531474;82.0083161669337
71642;BME280;60657;50.122;14.468;2023-08-06T08:36:59;97067.87240396797;;;18.206683451590756;81.15953307392996
71642;BME280;60657;50.122;14.468;2023-08-06T08:40:08;97068.8379835904;;;18.20401312275883;81.35599298084993
71642;BME280;60657;50.122;14.468;2023-08-06T08:43:16;97064.09981716209;;;18.179980163271537;81.54673075455864
71642;BME280;60657;50.122;14.468;2023-08-06T08:46:29;97058.02032938202;;;18.22804608224613;81.57343404287785
71642;BME280;60657;50.122;14.468;2023-08-06T08:49:39;97058.30452142627;;;18.35622186617838;81.16716258487831
71642;BME280;60657;50.122;14.468;2023-08-06T08:52:48;97056.14057749568;;;18.41496910048066;81.6249332417792
71642;BME280;60657;50.122;14.468;2023-08-06T08:55:58;97061.41059682054;;;18.409628442816818;80.82192721446555
71642;BME280;60657;50.122;14.468;2023-08-06T08:59:06;97055.17248184574;;;18.465705348287173;80.98596169985504
71642;BME280;60657;50.122;14.468;2023-08-06T09:02:14;97048.11674135916;;;18.567177843900204;81.14808880750743
71642;BME280;60657;50.122;14.468;2023-08-06T09:05:23;97049.39405995295;;;18.505760280766005;80.18677042801556
71642;BME280;60657;50.122;14.468;2023-08-06T09:08:36;97048.502654985;;;18.41763942931258;79.72137026016632
71642;BME280;60657;50.122;14.468;2023-08-06T09:11:49;97041.21370774248;;;18.58854047455558;79.06523231860838
71642;BME280;60657;50.122;14.468;2023-08-06T09:14:57;97041.83301300353;;;18.508430609597923;78.62272068360419
71642;BME280;60657;50.122;14.468;2023-08-06T09:18:08;97049.16301383245;;;18.521782253757536;78.09437705043106
71642;BME280;60657;50.122;14.468;2023-08-06T09:21:17;97048.07182739385;;;18.385595483329517;78.21644922560463
71642;BME280;60657;50.122;14.468;2023-08-06T09:24:25;97044.50718203797;;;18.404287785152974;77.84641794460975
71642;BME280;60657;50.122;14.468;2023-08-06T09:27:32;97035.43560573064;;;18.54581521324483;77.89410238803693
71642;BME280;60657;50.122;14.468;2023-08-06T09:30:40;97030.0035174917;;;18.623254749370567;78.37666895551995
71642;BME280;60657;50.122;14.468;2023-08-06T09:33:48;97038.53706293386;;;18.564507515068286;76.72678721293966
71642;BME280;60657;50.122;14.468;2023-08-06T09:36:56;97035.78154611668;;;18.676661326009004;77.81399252307926
71642;BME280;60657;50.122;14.468;2023-08-06T09:40:04;97034.15303599263;;;18.64461738002594;76.70008392462043
71642;BME280;60657;50.122;14.468;2023-08-06T09:43:39;97026.35400024423;;;18.62058442053864;76.97474631876096
71642;BME280;60657;50.122;14.468;2023-08-06T09:46:47;97029.18929472854;;;18.537804226749067;76.4845502403296
71642;BME280;60657;50.122;14.468;2023-08-06T09:49:56;97027.05916743464;;;18.548485542076754;77.6480506599527
71642;BME280;60657;50.122;14.468;2023-08-06T09:53:04;97024.72568569984;;;18.67132066834516;78.54833295185779
71642;BME280;60657;50.122;14.468;2023-08-06T09:56:14;97014.4828229725;;;18.649958037689785;77.58701457236592
71642;BME280;60657;50.122;14.468;2023-08-06T09:59:24;97019.04967567856;;;18.74074921797513;77.73388265812162
71642;BME280;60657;50.122;14.468;2023-08-06T10:02:33;97016.94278585717;;;18.839551384756234;77.60227359426261
71642;BME280;60657;50.122;14.468;2023-08-06T10:05:42;97012.95297552114;;;18.754100862134734;76.23086900129702
71642;BME280;60657;50.122;14.468;2023-08-06T10:08:51;97013.19237346169;;;18.719386587319754;76.56275272755016
71642;BME280;60657;50.122;14.468;2023-08-06T10:11:59;97016.94278585717;;;18.866254673075453;77.38483253223468
71642;BME280;60657;50.122;14.468;2023-08-06T10:15:09;97007.42746280934;;;18.914320592050046;76.85839627679866
71642;BME280;60657;50.122;14.468;2023-08-06T10:18:21;97011.57738469186;;;18.871595330739297;75.86274509803921
71642;BME280;60657;50.122;14.468;2023-08-06T10:21:30;97006.37148799904;;;18.922331578545815;75.48317692835889
71642;BME280;60657;50.122;14.468;2023-08-06T10:24:54;96997.08855380378;;;18.80750743877317;75.31723506523232
71642;BME280;60657;50.122;14.468;2023-08-06T10:28:07;97002.54437579724;;;18.879606317235066;75.7330434119173
71642;BME280;60657;50.122;14.468;2023-08-06T10:31:15;96989.27869455396;;;19.170672159914545;75.49080643930724
71642;BME280;60657;50.122;14.468;2023-08-06T10:34:23;96993.3307890456;;;19.338902876325633;75.38780804150454
71642;BME280;60657;50.122;14.468;2023-08-06T10:37:34;96991.67919485732;;;19.42969405661097;74.68207827878233
71642;BME280;60657;50.122;14.468;2023-08-06T10:40:48;96984.83489949489;;;19.467078660257883;73.35263599603266
71642;BME280;60657;50.122;14.468;2023-08-06T10:44:05;96989.29071493437;;;19.595254444190132;74.05073624780651
71642;BME280;60657;50.122;14.468;2023-08-06T10:47:26;96982.82954968371;;;19.69405661097123;74.1117723353933
71642;BME280;60657;50.122;14.468;2023-08-06T10:50:34;96990.69715108273;;;19.531166552224008;73.21911955443656
71642;BME280;60657;50.122;14.468;2023-08-06T10:53:42;96981.1581303716;;;19.627298390173195;73.03791866941329
71642;BME280;60657;50.122;14.468;2023-08-06T10:56:52;96984.91938740277;;;19.47775997558557;73.06271457999543
71642;BME280;60657;50.122;14.468;2023-08-06T11:00:00;96985.34049082933;;;19.39230945296407;72.8014038300145
71642;BME280;60657;50.122;14.468;2023-08-06T11:03:10;96988.59398369517;;;19.424353398947133;72.35698481727322
71642;BME280;60657;50.122;14.468;2023-08-06T11:06:19;96983.42775623084;;;19.60860608834973;71.89349202716106
71642;BME280;60657;50.122;14.468;2023-08-06T11:09:28;96988.4358696294;;;19.800869764248105;71.58831158922713
71642;BME280;60657;50.122;14.468;2023-08-06T11:12:36;96991.04714999037;;;19.77149614709697;70.38284885938812
71642;BME280;60657;50.122;14.468;2023-08-06T11:15:44;96986.6807089682;;;19.645990691996644;70.3847562371252
71642;BME280;60657;50.122;14.468;2023-08-06T11:18:53;96988.9498467078;;;19.720759899290456;71.21828030823224
71642;BME280;60657;50.122;14.468;2023-08-06T11:22:01;96995.06879100058;;;19.66735332265202;70.28938735027084
71642;BME280;60657;50.122;14.468;2023-08-06T11:25:10;96989.88380306459;;;19.51514457923247;69.72671091783016